首页
METAR-TAF:

METAR-TAF

机场 :

干邑白蘭地, 法国

纬度: 45-40N, 经度: 000-19W, 海拔: 30米

当前天气观测

该预报发布于42分钟前的18:30 UTC
风速5节,风向西北
温度 17°C
湿度 72%
气压 1018 hPa
能见度10公里或以上
1500米以下无云,无积雨云

METAR: LFBG 211830Z AUTO 31005KT CAVOK 17/12 Q1018 NOSIG

时间: 21:12 (19:12 UTC)

预报

该预报发布于11小时和12分钟前的08:00 UTC
预报有效从21日的 09点(UTC)到 22日的 09点(UTC)
风速2节,风向多变
能見度: 0400
成为
从 21日的 09点(UTC)到 21日的 10点(UTC)
能见度10公里或以上
散云层高于1000英尺
成为
从 21日的 11点(UTC)到 21日的 13点(UTC)
多云层高于2000英尺
短暂存在
从 21日的 13点(UTC)到 21日的 18点(UTC)
少量云层高于2000英尺, 积雨云.
散云层高于2000英尺, 塔状积云.
小阵雨
成为
从 22日的 00点(UTC)到 22日的 02点(UTC)
能見度: 0400
成为
从 22日的 07点(UTC)到 22日的 09点(UTC)
能见度10公里或以上
散云层高于2000英尺

TAF: LFBG 210800Z 2109/2209 VRB02KT 0400 FG VV/// BECMG 2109/2110 9999 NSW SCT010 BECMG 2111/2113 BKN020 TEMPO 2113/2118 -SHRA FEW020CB SCT020TCU BECMG 2200/2202 0400 FG BECMG 2207/2209 9999 SCT020

超过4000个机场的气象观测和天气预报(METAR&TAF报告)。

可查询的气象台以黄色和红色小点在地图上表示。

将鼠标移到小点上方,可查看气象台名称。

然后点击查看天气观测和预报。

如需切换地图:点击带黑十字的绿色按钮放大地图;点击带横线的绿色按钮缩小地图;或者点击绿色箭头查看邻近地区的地图。


METAR-TAF: